KCPW

Wolf Creek Pass Airport

Pagosa Springs, Colorado, USA
METAR KCPW 232206Z AUTO 20022G33KT BKN006 OVC011 M13/M13 A2983 RMK AO2 PWINO
Observed Flight Rules
Feb-23 @ 22:06 UTC (28 minutes ago)
Wind Clouds
200° at 22 knots
 Gusting to 33 knots
  • Broken at 600' AGL
  • Overcast at 1,100' AGL
Temperatures Readings
Current -13°C / 9°F
Dewpoint -13°C / 9°F
Humidity 100%
Altimeter 29.83" Hg
Pressure 1010 hPa
Elevation 3584
METAR KCPW 232206Z AUTO 20022G33KT BKN006 OVC011 M13/M13 A2983 RMK AO2 PWINO
Observed Flight Rules
Feb-23 @ 22:06 UTC
(28 minutes ago)
Wind
200° at 22 knots
 Gusting to 33 knots
Clouds
  • Broken at 600' AGL
  • Overcast at 1,100' AGL
Temperature Dewpoint
-13°C / 9°F -13°C / 9°F
Humidity Altimeter Pressure
100% 29.83" Hg 1010 hPa